Terminal Aerodrome Forecast
Issued by NWS

Home | Current Version | Previous Version | Text Only | Print | Product List | Glossary On
Versions: 1 2 3 4 5 6 7 8 9 10 11 12 13 14 15 16 17 18 19 20 21
000
FTUS42 KILM 242300
TAFCRE
TAF
KCRE 242332Z 2500/2524 21016KT P6SM SCT060
     FM250200 24010KT 3SM SHRA VCTS SCT015 BKN040CB
     FM250700 24003KT P6SM VCSH SCT050 BKN100
     FM251300 29005KT P6SM SCT050 SCT100
     FM251800 19008KT P6SM VCTS BKN050CB=

USA.gov is the U.S. government's official web portal to all federal, state and local government web resources and services.